sensor_id;sensor_type;location;lat;lon;timestamp;temperature;humidity
7044;DHT22;57890;52.36301240;9.76001620;2022-07-30T00:00:07;20.80;86.80
7044;DHT22;57890;52.36301240;9.76001620;2022-07-30T00:02:34;20.80;86.80
7044;DHT22;57890;52.36301240;9.76001620;2022-07-30T00:05:02;20.80;86.80
7044;DHT22;57890;52.36301240;9.76001620;2022-07-30T00:07:29;20.80;86.90
7044;DHT22;57890;52.36301240;9.76001620;2022-07-30T00:09:56;20.80;87.00
7044;DHT22;57890;52.36301240;9.76001620;2022-07-30T00:12:24;20.80;87.10
7044;DHT22;57890;52.36301240;9.76001620;2022-07-30T00:14:51;20.70;86.90
7044;DHT22;57890;52.36301240;9.76001620;2022-07-30T00:17:17;20.70;87.10
7044;DHT22;57890;52.36301240;9.76001620;2022-07-30T00:19:44;20.70;87.20
7044;DHT22;57890;52.36301240;9.76001620;2022-07-30T00:22:11;20.70;87.30
7044;DHT22;57890;52.36301240;9.76001620;2022-07-30T00:24:38;20.70;87.30
7044;DHT22;57890;52.36301240;9.76001620;2022-07-30T00:27:05;20.70;87.40
7044;DHT22;57890;52.36301240;9.76001620;2022-07-30T00:29:33;20.70;87.40
7044;DHT22;57890;52.36301240;9.76001620;2022-07-30T00:32:00;20.70;87.40
7044;DHT22;57890;52.36301240;9.76001620;2022-07-30T00:34:27;20.70;87.60
7044;DHT22;57890;52.36301240;9.76001620;2022-07-30T00:36:54;20.70;87.60
7044;DHT22;57890;52.36301240;9.76001620;2022-07-30T00:39:21;20.60;87.60
7044;DHT22;57890;52.36301240;9.76001620;2022-07-30T00:41:53;20.60;87.70
7044;DHT22;57890;52.36301240;9.76001620;2022-07-30T00:44:20;20.60;87.90
7044;DHT22;57890;52.36301240;9.76001620;2022-07-30T00:46:48;20.60;87.90
7044;DHT22;57890;52.36301240;9.76001620;2022-07-30T00:49:15;20.60;88.00
7044;DHT22;57890;52.36301240;9.76001620;2022-07-30T00:51:42;20.60;88.20
7044;DHT22;57890;52.36301240;9.76001620;2022-07-30T00:54:09;20.50;88.10
7044;DHT22;57890;52.36301240;9.76001620;2022-07-30T00:56:36;20.50;88.20
7044;DHT22;57890;52.36301240;9.76001620;2022-07-30T00:59:03;20.50;88.20
7044;DHT22;57890;52.36301240;9.76001620;2022-07-30T01:01:30;20.60;88.40
7044;DHT22;57890;52.36301240;9.76001620;2022-07-30T01:03:59;20.50;88.50
7044;DHT22;57890;52.36301240;9.76001620;2022-07-30T01:06:26;20.60;88.60
7044;DHT22;57890;52.36301240;9.76001620;2022-07-30T01:08:53;20.60;88.60
7044;DHT22;57890;52.36301240;9.76001620;2022-07-30T01:11:20;20.60;88.60
7044;DHT22;57890;52.36301240;9.76001620;2022-07-30T01:13:48;20.60;88.60
7044;DHT22;57890;52.36301240;9.76001620;2022-07-30T01:16:14;20.70;88.70
7044;DHT22;57890;52.36301240;9.76001620;2022-07-30T01:18:43;20.70;89.30
7044;DHT22;57890;52.36301240;9.76001620;2022-07-30T01:21:36;20.70;88.60
7044;DHT22;57890;52.36301240;9.76001620;2022-07-30T01:24:10;20.70;88.50
7044;DHT22;57890;52.36301240;9.76001620;2022-07-30T01:26:43;20.80;88.50
7044;DHT22;57890;52.36301240;9.76001620;2022-07-30T01:29:12;20.80;88.40
7044;DHT22;57890;52.36301240;9.76001620;2022-07-30T01:31:40;20.80;88.30
7044;DHT22;57890;52.36301240;9.76001620;2022-07-30T01:34:10;20.90;90.30
7044;DHT22;57890;52.36301240;9.76001620;2022-07-30T01:36:39;20.90;89.70
7044;DHT22;57890;52.36301240;9.76001620;2022-07-30T01:39:07;20.80;89.10
7044;DHT22;57890;52.36301240;9.76001620;2022-07-30T01:41:36;20.80;89.00
7044;DHT22;57890;52.36301240;9.76001620;2022-07-30T01:44:04;20.80;88.90
7044;DHT22;57890;52.36301240;9.76001620;2022-07-30T01:46:32;20.80;88.90
7044;DHT22;57890;52.36301240;9.76001620;2022-07-30T01:49:00;20.80;88.80
7044;DHT22;57890;52.36301240;9.76001620;2022-07-30T01:51:30;20.80;88.80
7044;DHT22;57890;52.36301240;9.76001620;2022-07-30T01:53:58;20.80;88.80
7044;DHT22;57890;52.36301240;9.76001620;2022-07-30T01:56:27;20.80;88.80
7044;DHT22;57890;52.36301240;9.76001620;2022-07-30T01:58:56;20.80;88.80
7044;DHT22;57890;52.36301240;9.76001620;2022-07-30T02:01:27;20.80;88.80
7044;DHT22;57890;52.36301240;9.76001620;2022-07-30T02:04:00;20.70;88.80
7044;DHT22;57890;52.36301240;9.76001620;2022-07-30T02:06:32;20.70;88.80
7044;DHT22;57890;52.36301240;9.76001620;2022-07-30T02:09:04;20.70;88.90
7044;DHT22;57890;52.36301240;9.76001620;2022-07-30T02:11:38;20.70;88.90
7044;DHT22;57890;52.36301240;9.76001620;2022-07-30T02:14:27;20.70;89.00
7044;DHT22;57890;52.36301240;9.76001620;2022-07-30T02:16:56;20.70;88.90
7044;DHT22;57890;52.36301240;9.76001620;2022-07-30T02:19:27;20.70;88.90
7044;DHT22;57890;52.36301240;9.76001620;2022-07-30T02:21:58;20.70;89.00
7044;DHT22;57890;52.36301240;9.76001620;2022-07-30T02:24:31;20.70;89.00
7044;DHT22;57890;52.36301240;9.76001620;2022-07-30T02:27:02;20.70;89.10
7044;DHT22;57890;52.36301240;9.76001620;2022-07-30T02:29:32;20.70;89.10
7044;DHT22;57890;52.36301240;9.76001620;2022-07-30T02:32:05;20.70;89.20
7044;DHT22;57890;52.36301240;9.76001620;2022-07-30T02:34:37;20.70;89.30
7044;DHT22;57890;52.36301240;9.76001620;2022-07-30T02:37:06;20.70;89.30
7044;DHT22;57890;52.36301240;9.76001620;2022-07-30T02:39:37;20.70;89.30
7044;DHT22;57890;52.36301240;9.76001620;2022-07-30T02:42:05;20.70;89.40
7044;DHT22;57890;52.36301240;9.76001620;2022-07-30T02:44:36;20.70;89.50
7044;DHT22;57890;52.36301240;9.76001620;2022-07-30T02:47:06;20.70;89.60
7044;DHT22;57890;52.36301240;9.76001620;2022-07-30T02:49:51;20.70;89.70
7044;DHT22;57890;52.36301240;9.76001620;2022-07-30T02:52:21;20.60;89.60
7044;DHT22;57890;52.36301240;9.76001620;2022-07-30T02:54:50;20.60;89.70
7044;DHT22;57890;52.36301240;9.76001620;2022-07-30T02:57:19;20.50;89.70
7044;DHT22;57890;52.36301240;9.76001620;2022-07-30T02:59:48;20.50;89.90
7044;DHT22;57890;52.36301240;9.76001620;2022-07-30T03:02:18;20.50;90.00
7044;DHT22;57890;52.36301240;9.76001620;2022-07-30T03:04:46;20.40;90.00
7044;DHT22;57890;52.36301240;9.76001620;2022-07-30T03:07:14;20.50;90.00
7044;DHT22;57890;52.36301240;9.76001620;2022-07-30T03:09:42;20.50;90.10
7044;DHT22;57890;52.36301240;9.76001620;2022-07-30T03:12:11;20.40;90.10
7044;DHT22;57890;52.36301240;9.76001620;2022-07-30T03:14:40;20.40;90.10
7044;DHT22;57890;52.36301240;9.76001620;2022-07-30T03:17:07;20.40;90.10
7044;DHT22;57890;52.36301240;9.76001620;2022-07-30T03:19:38;20.40;90.20
7044;DHT22;57890;52.36301240;9.76001620;2022-07-30T03:22:06;20.40;90.20
7044;DHT22;57890;52.36301240;9.76001620;2022-07-30T03:24:35;20.40;90.20
7044;DHT22;57890;52.36301240;9.76001620;2022-07-30T03:27:04;20.40;90.20
7044;DHT22;57890;52.36301240;9.76001620;2022-07-30T03:29:32;20.40;90.20
7044;DHT22;57890;52.36301240;9.76001620;2022-07-30T03:32:00;20.40;90.30
7044;DHT22;57890;52.36301240;9.76001620;2022-07-30T03:34:27;20.40;90.50
7044;DHT22;57890;52.36301240;9.76001620;2022-07-30T03:36:56;20.40;90.40
7044;DHT22;57890;52.36301240;9.76001620;2022-07-30T03:39:23;20.40;90.50
7044;DHT22;57890;52.36301240;9.76001620;2022-07-30T03:41:53;20.40;90.50
7044;DHT22;57890;52.36301240;9.76001620;2022-07-30T03:44:21;20.40;90.50
7044;DHT22;57890;52.36301240;9.76001620;2022-07-30T03:46:50;20.30;90.60
7044;DHT22;57890;52.36301240;9.76001620;2022-07-30T03:49:20;20.30;90.60
7044;DHT22;57890;52.36301240;9.76001620;2022-07-30T03:51:49;20.30;90.60
7044;DHT22;57890;52.36301240;9.76001620;2022-07-30T03:54:19;20.30;90.70
7044;DHT22;57890;52.36301240;9.76001620;2022-07-30T03:57:24;20.30;90.70
7044;DHT22;57890;52.36301240;9.76001620;2022-07-30T03:59:52;20.30;90.70
7044;DHT22;57890;52.36301240;9.76001620;2022-07-30T04:02:20;20.30;90.70
7044;DHT22;57890;52.36301240;9.76001620;2022-07-30T04:05:03;20.30;90.70
7044;DHT22;57890;52.36301240;9.76001620;2022-07-30T04:07:31;20.30;90.70
7044;DHT22;57890;52.36301240;9.76001620;2022-07-30T04:09:59;20.30;90.80
7044;DHT22;57890;52.36301240;9.76001620;2022-07-30T04:12:49;20.30;90.80
7044;DHT22;57890;52.36301240;9.76001620;2022-07-30T04:15:16;20.20;90.70
7044;DHT22;57890;52.36301240;9.76001620;2022-07-30T04:17:46;20.20;90.80
7044;DHT22;57890;52.36301240;9.76001620;2022-07-30T04:20:24;20.20;90.90
7044;DHT22;57890;52.36301240;9.76001620;2022-07-30T04:22:52;20.20;90.90
7044;DHT22;57890;52.36301240;9.76001620;2022-07-30T04:25:21;20.20;91.00
7044;DHT22;57890;52.36301240;9.76001620;2022-07-30T04:27:49;20.20;91.00
7044;DHT22;57890;52.36301240;9.76001620;2022-07-30T04:30:16;20.10;91.00
7044;DHT22;57890;52.36301240;9.76001620;2022-07-30T04:32:43;20.10;91.10
7044;DHT22;57890;52.36301240;9.76001620;2022-07-30T04:35:36;20.00;91.10
7044;DHT22;57890;52.36301240;9.76001620;2022-07-30T04:38:11;20.00;91.10
7044;DHT22;57890;52.36301240;9.76001620;2022-07-30T04:40:41;20.00;91.60
7044;DHT22;57890;52.36301240;9.76001620;2022-07-30T04:43:07;20.00;91.30
7044;DHT22;57890;52.36301240;9.76001620;2022-07-30T04:45:38;20.00;91.30
7044;DHT22;57890;52.36301240;9.76001620;2022-07-30T04:48:05;20.00;91.40
7044;DHT22;57890;52.36301240;9.76001620;2022-07-30T04:50:48;20.00;91.40
7044;DHT22;57890;52.36301240;9.76001620;2022-07-30T04:53:18;20.00;91.30
7044;DHT22;57890;52.36301240;9.76001620;2022-07-30T04:55:54;20.00;91.30
7044;DHT22;57890;52.36301240;9.76001620;2022-07-30T04:58:25;20.00;91.30
7044;DHT22;57890;52.36301240;9.76001620;2022-07-30T05:00:53;20.00;91.30
7044;DHT22;57890;52.36301240;9.76001620;2022-07-30T05:03:25;20.00;91.30
7044;DHT22;57890;52.36301240;9.76001620;2022-07-30T05:05:54;19.90;91.40
7044;DHT22;57890;52.36301240;9.76001620;2022-07-30T05:08:22;19.90;91.40
7044;DHT22;57890;52.36301240;9.76001620;2022-07-30T05:10:49;19.90;91.40
7044;DHT22;57890;52.36301240;9.76001620;2022-07-30T05:13:18;19.90;91.40
7044;DHT22;57890;52.36301240;9.76001620;2022-07-30T05:15:45;19.90;91.50
7044;DHT22;57890;52.36301240;9.76001620;2022-07-30T05:18:15;19.90;91.60
7044;DHT22;57890;52.36301240;9.76001620;2022-07-30T05:20:43;19.90;91.90
7044;DHT22;57890;52.36301240;9.76001620;2022-07-30T05:23:22;19.90;91.60
7044;DHT22;57890;52.36301240;9.76001620;2022-07-30T05:26:01;20.00;91.70
7044;DHT22;57890;52.36301240;9.76001620;2022-07-30T05:28:34;19.90;91.50
7044;DHT22;57890;52.36301240;9.76001620;2022-07-30T05:31:05;19.90;91.70
7044;DHT22;57890;52.36301240;9.76001620;2022-07-30T05:33:32;19.90;91.60
7044;DHT22;57890;52.36301240;9.76001620;2022-07-30T05:35:59;19.90;91.70
7044;DHT22;57890;52.36301240;9.76001620;2022-07-30T05:38:26;20.00;93.00
7044;DHT22;57890;52.36301240;9.76001620;2022-07-30T05:41:12;19.90;92.50
7044;DHT22;57890;52.36301240;9.76001620;2022-07-30T05:44:02;19.90;92.20
7044;DHT22;57890;52.36301240;9.76001620;2022-07-30T05:46:29;19.90;92.10
7044;DHT22;57890;52.36301240;9.76001620;2022-07-30T05:48:57;19.90;92.10
7044;DHT22;57890;52.36301240;9.76001620;2022-07-30T05:51:24;19.90;92.10
7044;DHT22;57890;52.36301240;9.76001620;2022-07-30T05:53:51;19.90;92.10
7044;DHT22;57890;52.36301240;9.76001620;2022-07-30T05:56:37;19.90;92.10
7044;DHT22;57890;52.36301240;9.76001620;2022-07-30T05:59:15;19.90;92.00
7044;DHT22;57890;52.36301240;9.76001620;2022-07-30T06:02:03;19.90;92.10
7044;DHT22;57890;52.36301240;9.76001620;2022-07-30T06:04:49;19.90;92.10
7044;DHT22;57890;52.36301240;9.76001620;2022-07-30T06:07:16;19.90;92.10
7044;DHT22;57890;52.36301240;9.76001620;2022-07-30T06:09:43;19.90;92.10
7044;DHT22;57890;52.36301240;9.76001620;2022-07-30T06:12:10;19.90;92.10
7044;DHT22;57890;52.36301240;9.76001620;2022-07-30T06:14:40;19.90;92.00
7044;DHT22;57890;52.36301240;9.76001620;2022-07-30T06:17:10;19.90;92.10
7044;DHT22;57890;52.36301240;9.76001620;2022-07-30T06:19:58;20.10;93.40
7044;DHT22;57890;52.36301240;9.76001620;2022-07-30T06:22:25;20.00;92.80
7044;DHT22;57890;52.36301240;9.76001620;2022-07-30T06:24:54;20.00;92.60
7044;DHT22;57890;52.36301240;9.76001620;2022-07-30T06:27:24;20.00;92.50
7044;DHT22;57890;52.36301240;9.76001620;2022-07-30T06:29:54;20.00;92.50
7044;DHT22;57890;52.36301240;9.76001620;2022-07-30T06:32:21;20.00;92.50
7044;DHT22;57890;52.36301240;9.76001620;2022-07-30T06:34:47;20.00;92.40
7044;DHT22;57890;52.36301240;9.76001620;2022-07-30T06:37:14;20.00;92.40
7044;DHT22;57890;52.36301240;9.76001620;2022-07-30T06:39:43;20.00;92.40
7044;DHT22;57890;52.36301240;9.76001620;2022-07-30T06:42:26;20.10;92.40
7044;DHT22;57890;52.36301240;9.76001620;2022-07-30T06:45:19;20.10;92.40
7044;DHT22;57890;52.36301240;9.76001620;2022-07-30T06:48:12;20.20;92.40
7044;DHT22;57890;52.36301240;9.76001620;2022-07-30T06:50:39;20.20;92.30
7044;DHT22;57890;52.36301240;9.76001620;2022-07-30T06:53:07;20.20;92.30
7044;DHT22;57890;52.36301240;9.76001620;2022-07-30T06:55:54;20.30;92.40
7044;DHT22;57890;52.36301240;9.76001620;2022-07-30T06:58:21;20.30;92.40
7044;DHT22;57890;52.36301240;9.76001620;2022-07-30T07:01:18;20.30;92.20
7044;DHT22;57890;52.36301240;9.76001620;2022-07-30T07:03:48;20.40;92.30
7044;DHT22;57890;52.36301240;9.76001620;2022-07-30T07:06:14;20.40;92.20
7044;DHT22;57890;52.36301240;9.76001620;2022-07-30T07:08:42;20.40;92.30
7044;DHT22;57890;52.36301240;9.76001620;2022-07-30T07:11:12;20.50;92.30
7044;DHT22;57890;52.36301240;9.76001620;2022-07-30T07:13:46;20.50;92.40
7044;DHT22;57890;52.36301240;9.76001620;2022-07-30T07:16:22;20.50;92.30
7044;DHT22;57890;52.36301240;9.76001620;2022-07-30T07:18:52;20.50;92.30
7044;DHT22;57890;52.36301240;9.76001620;2022-07-30T07:21:21;20.50;92.30
7044;DHT22;57890;52.36301240;9.76001620;2022-07-30T07:23:49;20.50;92.30
7044;DHT22;57890;52.36301240;9.76001620;2022-07-30T07:26:42;20.50;92.40
7044;DHT22;57890;52.36301240;9.76001620;2022-07-30T07:29:10;20.50;92.40
7044;DHT22;57890;52.36301240;9.76001620;2022-07-30T07:31:38;20.60;92.40
7044;DHT22;57890;52.36301240;9.76001620;2022-07-30T07:34:05;20.60;92.40
7044;DHT22;57890;52.36301240;9.76001620;2022-07-30T07:36:32;20.60;92.30
7044;DHT22;57890;52.36301240;9.76001620;2022-07-30T07:39:01;20.60;92.30
7044;DHT22;57890;52.36301240;9.76001620;2022-07-30T07:41:28;20.60;92.30
7044;DHT22;57890;52.36301240;9.76001620;2022-07-30T07:43:55;20.60;92.30
7044;DHT22;57890;52.36301240;9.76001620;2022-07-30T07:46:30;20.60;92.30
7044;DHT22;57890;52.36301240;9.76001620;2022-07-30T07:49:01;20.70;92.30
7044;DHT22;57890;52.36301240;9.76001620;2022-07-30T07:51:34;20.70;92.30
7044;DHT22;57890;52.36301240;9.76001620;2022-07-30T07:54:03;20.70;92.30
7044;DHT22;57890;52.36301240;9.76001620;2022-07-30T07:56:32;20.80;92.30
7044;DHT22;57890;52.36301240;9.76001620;2022-07-30T07:58:59;20.80;92.20
7044;DHT22;57890;52.36301240;9.76001620;2022-07-30T08:01:27;20.90;92.20
7044;DHT22;57890;52.36301240;9.76001620;2022-07-30T08:04:14;20.90;92.20
7044;DHT22;57890;52.36301240;9.76001620;2022-07-30T08:07:00;21.00;92.20
7044;DHT22;57890;52.36301240;9.76001620;2022-07-30T08:09:45;20.90;92.00
7044;DHT22;57890;52.36301240;9.76001620;2022-07-30T08:12:33;21.00;92.00
7044;DHT22;57890;52.36301240;9.76001620;2022-07-30T08:15:14;21.00;92.00
7044;DHT22;57890;52.36301240;9.76001620;2022-07-30T08:18:04;21.00;92.00
7044;DHT22;57890;52.36301240;9.76001620;2022-07-30T08:20:42;21.10;92.00
7044;DHT22;57890;52.36301240;9.76001620;2022-07-30T08:23:11;21.10;92.10
7044;DHT22;57890;52.36301240;9.76001620;2022-07-30T08:25:37;21.20;92.10
7044;DHT22;57890;52.36301240;9.76001620;2022-07-30T08:28:05;21.20;92.10
7044;DHT22;57890;52.36301240;9.76001620;2022-07-30T08:30:32;21.30;92.00
7044;DHT22;57890;52.36301240;9.76001620;2022-07-30T08:32:59;21.40;91.90
7044;DHT22;57890;52.36301240;9.76001620;2022-07-30T08:35:26;21.40;91.90
7044;DHT22;57890;52.36301240;9.76001620;2022-07-30T08:37:56;21.40;91.90
7044;DHT22;57890;52.36301240;9.76001620;2022-07-30T08:40:25;21.50;91.90
7044;DHT22;57890;52.36301240;9.76001620;2022-07-30T08:43:01;21.50;91.80
7044;DHT22;57890;52.36301240;9.76001620;2022-07-30T08:45:29;21.60;91.70
7044;DHT22;57890;52.36301240;9.76001620;2022-07-30T08:47:59;21.60;91.60
7044;DHT22;57890;52.36301240;9.76001620;2022-07-30T08:50:35;21.70;91.60
7044;DHT22;57890;52.36301240;9.76001620;2022-07-30T08:53:24;21.80;91.50
7044;DHT22;57890;52.36301240;9.76001620;2022-07-30T08:55:52;21.80;91.40
7044;DHT22;57890;52.36301240;9.76001620;2022-07-30T08:58:27;21.90;91.40
7044;DHT22;57890;52.36301240;9.76001620;2022-07-30T09:00:55;21.90;91.40
7044;DHT22;57890;52.36301240;9.76001620;2022-07-30T09:03:21;21.90;91.20
7044;DHT22;57890;52.36301240;9.76001620;2022-07-30T09:05:49;22.00;91.30
7044;DHT22;57890;52.36301240;9.76001620;2022-07-30T09:08:16;22.00;91.30
7044;DHT22;57890;52.36301240;9.76001620;2022-07-30T09:10:46;22.00;91.30
7044;DHT22;57890;52.36301240;9.76001620;2022-07-30T09:13:24;22.10;91.40
7044;DHT22;57890;52.36301240;9.76001620;2022-07-30T09:15:52;22.10;91.40
7044;DHT22;57890;52.36301240;9.76001620;2022-07-30T09:18:27;22.20;91.40
7044;DHT22;57890;52.36301240;9.76001620;2022-07-30T09:20:55;22.30;91.40
7044;DHT22;57890;52.36301240;9.76001620;2022-07-30T09:23:23;22.30;91.20
7044;DHT22;57890;52.36301240;9.76001620;2022-07-30T09:26:24;22.40;91.20
7044;DHT22;57890;52.36301240;9.76001620;2022-07-30T09:29:21;22.50;91.00
7044;DHT22;57890;52.36301240;9.76001620;2022-07-30T09:32:07;22.50;90.70
7044;DHT22;57890;52.36301240;9.76001620;2022-07-30T09:34:53;22.50;90.40
7044;DHT22;57890;52.36301240;9.76001620;2022-07-30T09:37:42;22.60;90.30
7044;DHT22;57890;52.36301240;9.76001620;2022-07-30T09:40:36;22.70;90.20
7044;DHT22;57890;52.36301240;9.76001620;2022-07-30T09:43:25;22.70;90.20
7044;DHT22;57890;52.36301240;9.76001620;2022-07-30T09:45:56;22.70;90.10
7044;DHT22;57890;52.36301240;9.76001620;2022-07-30T09:48:26;22.70;90.10
7044;DHT22;57890;52.36301240;9.76001620;2022-07-30T09:50:54;22.80;90.20
7044;DHT22;57890;52.36301240;9.76001620;2022-07-30T09:53:21;22.80;90.20
7044;DHT22;57890;52.36301240;9.76001620;2022-07-30T09:55:49;22.80;90.30
7044;DHT22;57890;52.36301240;9.76001620;2022-07-30T09:58:16;22.90;90.30
7044;DHT22;57890;52.36301240;9.76001620;2022-07-30T10:00:44;22.90;90.20
7044;DHT22;57890;52.36301240;9.76001620;2022-07-30T10:03:25;23.00;90.30
7044;DHT22;57890;52.36301240;9.76001620;2022-07-30T10:06:32;23.00;90.20
7044;DHT22;57890;52.36301240;9.76001620;2022-07-30T10:09:03;23.10;90.10
7044;DHT22;57890;52.36301240;9.76001620;2022-07-30T10:11:31;23.10;90.00
7044;DHT22;57890;52.36301240;9.76001620;2022-07-30T10:14:00;23.20;90.00
7044;DHT22;57890;52.36301240;9.76001620;2022-07-30T10:16:29;23.20;89.80
7044;DHT22;57890;52.36301240;9.76001620;2022-07-30T10:18:57;23.30;89.80
7044;DHT22;57890;52.36301240;9.76001620;2022-07-30T10:21:44;23.30;90.10
7044;DHT22;57890;52.36301240;9.76001620;2022-07-30T10:24:34;23.30;89.40
7044;DHT22;57890;52.36301240;9.76001620;2022-07-30T10:27:19;23.40;89.40
7044;DHT22;57890;52.36301240;9.76001620;2022-07-30T10:30:10;23.40;89.50
7044;DHT22;57890;52.36301240;9.76001620;2022-07-30T10:32:39;23.50;89.60
7044;DHT22;57890;52.36301240;9.76001620;2022-07-30T10:35:07;23.50;89.60
7044;DHT22;57890;52.36301240;9.76001620;2022-07-30T10:37:36;23.50;89.50
7044;DHT22;57890;52.36301240;9.76001620;2022-07-30T10:40:11;23.50;89.40
7044;DHT22;57890;52.36301240;9.76001620;2022-07-30T10:42:55;23.50;89.30
7044;DHT22;57890;52.36301240;9.76001620;2022-07-30T10:45:39;23.50;89.20
7044;DHT22;57890;52.36301240;9.76001620;2022-07-30T10:48:10;23.50;89.20
7044;DHT22;57890;52.36301240;9.76001620;2022-07-30T10:50:48;23.50;89.00
7044;DHT22;57890;52.36301240;9.76001620;2022-07-30T10:53:31;23.50;88.90
7044;DHT22;57890;52.36301240;9.76001620;2022-07-30T10:56:10;23.50;88.70
7044;DHT22;57890;52.36301240;9.76001620;2022-07-30T10:58:55;23.50;88.70
7044;DHT22;57890;52.36301240;9.76001620;2022-07-30T11:01:22;23.60;88.70
7044;DHT22;57890;52.36301240;9.76001620;2022-07-30T11:04:18;23.60;88.40
7044;DHT22;57890;52.36301240;9.76001620;2022-07-30T11:06:45;23.50;88.00
7044;DHT22;57890;52.36301240;9.76001620;2022-07-30T11:09:34;23.60;87.90
7044;DHT22;57890;52.36301240;9.76001620;2022-07-30T11:12:02;23.60;87.60
7044;DHT22;57890;52.36301240;9.76001620;2022-07-30T11:14:57;23.60;87.50
7044;DHT22;57890;52.36301240;9.76001620;2022-07-30T11:17:24;23.60;87.30
7044;DHT22;57890;52.36301240;9.76001620;2022-07-30T11:20:11;23.60;86.90
7044;DHT22;57890;52.36301240;9.76001620;2022-07-30T11:22:39;23.70;86.60
7044;DHT22;57890;52.36301240;9.76001620;2022-07-30T11:25:12;23.70;86.60
7044;DHT22;57890;52.36301240;9.76001620;2022-07-30T11:27:57;23.70;86.50
7044;DHT22;57890;52.36301240;9.76001620;2022-07-30T11:30:33;23.70;86.30
7044;DHT22;57890;52.36301240;9.76001620;2022-07-30T11:33:21;23.80;86.20
7044;DHT22;57890;52.36301240;9.76001620;2022-07-30T11:36:08;23.80;85.70
7044;DHT22;57890;52.36301240;9.76001620;2022-07-30T11:38:52;23.90;85.70
7044;DHT22;57890;52.36301240;9.76001620;2022-07-30T11:41:20;23.90;85.60
7044;DHT22;57890;52.36301240;9.76001620;2022-07-30T11:43:47;23.90;85.50
7044;DHT22;57890;52.36301240;9.76001620;2022-07-30T11:46:15;24.00;85.50
7044;DHT22;57890;52.36301240;9.76001620;2022-07-30T11:48:55;24.00;85.30
7044;DHT22;57890;52.36301240;9.76001620;2022-07-30T11:51:24;24.00;85.10
7044;DHT22;57890;52.36301240;9.76001620;2022-07-30T11:54:01;24.10;85.20
7044;DHT22;57890;52.36301240;9.76001620;2022-07-30T11:56:29;24.10;85.10
7044;DHT22;57890;52.36301240;9.76001620;2022-07-30T11:59:03;24.10;85.00
7044;DHT22;57890;52.36301240;9.76001620;2022-07-30T12:01:31;24.20;85.10
7044;DHT22;57890;52.36301240;9.76001620;2022-07-30T12:04:01;24.20;84.90
7044;DHT22;57890;52.36301240;9.76001620;2022-07-30T12:06:30;24.30;84.60
7044;DHT22;57890;52.36301240;9.76001620;2022-07-30T12:08:58;24.30;84.50
7044;DHT22;57890;52.36301240;9.76001620;2022-07-30T12:11:30;24.30;84.30
7044;DHT22;57890;52.36301240;9.76001620;2022-07-30T12:14:05;24.40;84.20
7044;DHT22;57890;52.36301240;9.76001620;2022-07-30T12:16:33;24.40;84.00
7044;DHT22;57890;52.36301240;9.76001620;2022-07-30T12:19:02;24.50;83.90
7044;DHT22;57890;52.36301240;9.76001620;2022-07-30T12:21:31;24.60;84.00
7044;DHT22;57890;52.36301240;9.76001620;2022-07-30T12:24:00;24.70;84.00
7044;DHT22;57890;52.36301240;9.76001620;2022-07-30T12:26:28;24.80;84.00
7044;DHT22;57890;52.36301240;9.76001620;2022-07-30T12:28:56;24.90;84.00
7044;DHT22;57890;52.36301240;9.76001620;2022-07-30T12:31:24;24.90;83.90
7044;DHT22;57890;52.36301240;9.76001620;2022-07-30T12:33:51;24.90;83.90
7044;DHT22;57890;52.36301240;9.76001620;2022-07-30T12:36:25;24.90;83.70
7044;DHT22;57890;52.36301240;9.76001620;2022-07-30T12:38:55;24.90;83.50
7044;DHT22;57890;52.36301240;9.76001620;2022-07-30T12:41:23;24.90;83.20
7044;DHT22;57890;52.36301240;9.76001620;2022-07-30T12:44:06;24.90;83.10
7044;DHT22;57890;52.36301240;9.76001620;2022-07-30T12:46:38;24.80;83.00
7044;DHT22;57890;52.36301240;9.76001620;2022-07-30T12:49:06;24.90;82.90
7044;DHT22;57890;52.36301240;9.76001620;2022-07-30T12:51:35;24.90;83.60
7044;DHT22;57890;52.36301240;9.76001620;2022-07-30T12:54:16;24.90;82.90
7044;DHT22;57890;52.36301240;9.76001620;2022-07-30T12:56:55;25.10;82.50
7044;DHT22;57890;52.36301240;9.76001620;2022-07-30T12:59:24;25.20;82.40
7044;DHT22;57890;52.36301240;9.76001620;2022-07-30T13:01:51;25.30;82.30
7044;DHT22;57890;52.36301240;9.76001620;2022-07-30T13:04:20;25.30;81.80
7044;DHT22;57890;52.36301240;9.76001620;2022-07-30T13:07:03;25.30;81.80
7044;DHT22;57890;52.36301240;9.76001620;2022-07-30T13:09:32;25.30;81.50
7044;DHT22;57890;52.36301240;9.76001620;2022-07-30T13:11:59;25.40;81.80
7044;DHT22;57890;52.36301240;9.76001620;2022-07-30T13:14:26;25.60;81.70
7044;DHT22;57890;52.36301240;9.76001620;2022-07-30T13:16:54;26.70;81.70
7044;DHT22;57890;52.36301240;9.76001620;2022-07-30T13:19:21;27.40;80.60
7044;DHT22;57890;52.36301240;9.76001620;2022-07-30T13:21:49;28.10;79.40
7044;DHT22;57890;52.36301240;9.76001620;2022-07-30T13:24:16;29.20;78.50
7044;DHT22;57890;52.36301240;9.76001620;2022-07-30T13:26:44;30.20;77.00
7044;DHT22;57890;52.36301240;9.76001620;2022-07-30T13:29:12;31.30;75.50
7044;DHT22;57890;52.36301240;9.76001620;2022-07-30T13:31:40;32.40;74.30
7044;DHT22;57890;52.36301240;9.76001620;2022-07-30T13:34:07;31.90;72.50
7044;DHT22;57890;52.36301240;9.76001620;2022-07-30T13:36:34;31.50;71.60
7044;DHT22;57890;52.36301240;9.76001620;2022-07-30T13:39:01;31.10;70.90
7044;DHT22;57890;52.36301240;9.76001620;2022-07-30T13:41:28;30.60;71.10
7044;DHT22;57890;52.36301240;9.76001620;2022-07-30T13:43:57;30.30;71.40
7044;DHT22;57890;52.36301240;9.76001620;2022-07-30T13:46:24;30.40;71.80
7044;DHT22;57890;52.36301240;9.76001620;2022-07-30T13:48:50;30.10;71.60
7044;DHT22;57890;52.36301240;9.76001620;2022-07-30T13:51:17;29.60;71.50
7044;DHT22;57890;52.36301240;9.76001620;2022-07-30T13:53:44;29.70;72.00
7044;DHT22;57890;52.36301240;9.76001620;2022-07-30T13:56:12;29.20;71.70
7044;DHT22;57890;52.36301240;9.76001620;2022-07-30T13:58:39;29.90;72.20
7044;DHT22;57890;52.36301240;9.76001620;2022-07-30T14:01:07;31.00;71.50